createdAt,value
2016-08-16T00:02:03.132Z,19.8
2016-08-16T00:07:03.448Z,19.7
2016-08-16T00:12:03.805Z,19.7
2016-08-16T00:17:03.459Z,19.6
2016-08-16T00:22:03.526Z,19.6
2016-08-16T00:27:03.765Z,19.6
2016-08-16T00:32:03.155Z,19.4
2016-08-16T00:37:03.421Z,19.4
2016-08-16T00:42:03.559Z,19.3
2016-08-16T00:47:03.475Z,19.1
2016-08-16T00:52:02.989Z,19.1
2016-08-16T00:57:03.410Z,19.1
2016-08-16T01:02:02.939Z,19.1
2016-08-16T01:07:03.753Z,18.9
2016-08-16T01:12:03.470Z,18.9
2016-08-16T01:17:03.018Z,18.8
2016-08-16T01:22:03.317Z,18.8
2016-08-16T01:27:03.318Z,18.8
2016-08-16T01:32:03.133Z,18.7
2016-08-16T01:37:03.634Z,18.6
2016-08-16T01:42:03.471Z,18.4
2016-08-16T01:47:03.113Z,18.3
2016-08-16T01:52:02.924Z,18.2
2016-08-16T01:57:03.610Z,18.0
2016-08-16T02:02:03.488Z,18.0
2016-08-16T02:07:03.598Z,17.9
2016-08-16T02:12:03.523Z,17.9
2016-08-16T02:17:03.625Z,18.0
2016-08-16T02:22:03.295Z,18.0
2016-08-16T02:27:03.487Z,18.0
2016-08-16T02:32:03.652Z,18.1
2016-08-16T02:37:02.935Z,18.1
2016-08-16T02:42:03.250Z,18.0
2016-08-16T02:47:03.413Z,17.8
2016-08-16T02:52:03.691Z,17.8
2016-08-16T02:57:02.988Z,17.6
2016-08-16T03:02:03.356Z,17.6
2016-08-16T03:07:03.688Z,17.5
2016-08-16T03:12:03.241Z,17.4
2016-08-16T03:17:03.396Z,17.3
2016-08-16T03:22:03.772Z,17.3
2016-08-16T03:27:03.190Z,17.3
2016-08-16T03:32:03.425Z,17.3
2016-08-16T03:37:03.804Z,17.4
2016-08-16T03:42:03.315Z,17.4
2016-08-16T03:47:13.425Z,17.4
2016-08-16T03:52:03.094Z,17.5
2016-08-16T03:57:02.925Z,17.4
2016-08-16T04:02:17.493Z,17.4
2016-08-16T04:07:03.202Z,17.2
2016-08-16T04:12:03.145Z,17.2
2016-08-16T04:17:21.315Z,17.2
2016-08-16T04:22:03.323Z,17.3
2016-08-16T04:27:03.703Z,17.5
2016-08-16T04:32:16.733Z,17.5
2016-08-16T04:37:03.690Z,17.7
2016-08-16T04:42:03.581Z,17.9
2016-08-16T04:47:21.268Z,17.9
2016-08-16T04:52:02.955Z,18.1
2016-08-16T04:57:03.442Z,18.2
2016-08-16T05:02:20.339Z,18.4
2016-08-16T05:07:03.499Z,18.5
2016-08-16T05:12:03.110Z,18.7
2016-08-16T05:17:17.615Z,18.7
2016-08-16T05:22:03.074Z,18.7
2016-08-16T05:27:03.861Z,18.8
2016-08-16T05:32:17.127Z,19.3
2016-08-16T05:37:03.600Z,19.3
2016-08-16T05:42:03.120Z,19.7
2016-08-16T05:47:16.916Z,19.7
2016-08-16T05:52:03.443Z,19.9
2016-08-16T05:57:02.871Z,20.3
2016-08-16T06:02:16.754Z,20.3
2016-08-16T06:07:02.935Z,20.5
2016-08-16T06:12:03.691Z,20.7
2016-08-16T06:17:17.585Z,21.4
2016-08-16T06:22:02.972Z,21.5
2016-08-16T06:27:03.083Z,21.5
2016-08-16T06:32:17.369Z,22.0
2016-08-16T06:37:03.552Z,22.3
2016-08-16T06:42:03.009Z,22.3
2016-08-16T06:47:20.697Z,22.5
2016-08-16T06:52:03.657Z,22.6
2016-08-16T06:57:03.607Z,23.0
2016-08-16T07:02:20.584Z,23.0
2016-08-16T07:07:03.681Z,23.3
2016-08-16T07:12:03.455Z,23.5
2016-08-16T07:17:17.044Z,23.9
2016-08-16T07:22:03.884Z,23.9
2016-08-16T07:27:03.877Z,24.3
2016-08-16T07:32:17.020Z,24.6
2016-08-16T07:37:03.307Z,24.6
2016-08-16T07:42:02.995Z,25.5
2016-08-16T07:47:17.691Z,25.7
2016-08-16T07:52:03.135Z,25.7
2016-08-16T07:57:02.826Z,25.9
2016-08-16T08:02:17.452Z,25.8
2016-08-16T08:07:03.370Z,25.6
2016-08-16T08:12:03.249Z,25.6
2016-08-16T08:17:21.009Z,25.5
2016-08-16T08:22:03.790Z,26.3
2016-08-16T08:27:03.707Z,26.3
2016-08-16T08:32:22.210Z,27.0
2016-08-16T08:37:03.150Z,27.0
2016-08-16T08:42:03.333Z,27.3
2016-08-16T08:47:17.464Z,27.6
2016-08-16T08:52:03.025Z,28.0
2016-08-16T08:57:03.441Z,28.0
2016-08-16T09:02:27.477Z,28.3
2016-08-16T09:07:03.628Z,28.5
2016-08-16T09:12:03.272Z,28.5
2016-08-16T09:17:17.160Z,28.7
2016-08-16T09:22:03.453Z,29.7
2016-08-16T09:27:03.482Z,30.1
2016-08-16T09:32:27.429Z,30.5
2016-08-16T09:37:03.451Z,30.5
2016-08-16T09:42:03.310Z,31.2
2016-08-16T09:47:17.508Z,31.5
2016-08-16T09:52:03.277Z,31.5
2016-08-16T09:57:03.508Z,32.2
2016-08-16T10:02:22.782Z,32.2
2016-08-16T10:07:03.332Z,32.6
2016-08-16T10:12:03.842Z,33.0
2016-08-16T10:17:21.084Z,32.9
2016-08-16T10:22:03.343Z,33.2
2016-08-16T10:27:03.337Z,33.2
2016-08-16T10:32:22.250Z,33.1
2016-08-16T10:37:03.530Z,33.1
2016-08-16T10:42:03.403Z,33.4
2016-08-16T10:47:20.601Z,33.5
2016-08-16T10:52:03.152Z,33.8
2016-08-16T10:57:03.297Z,34.2
2016-08-16T11:02:17.062Z,34.6
2016-08-16T11:07:03.405Z,34.8
2016-08-16T11:12:03.298Z,34.5
2016-08-16T11:17:17.232Z,34.1
2016-08-16T11:22:03.837Z,34.2
2016-08-16T11:27:03.782Z,34.3
2016-08-16T11:32:17.132Z,34.7
2016-08-16T11:37:02.964Z,34.9
2016-08-16T11:42:02.821Z,34.9
2016-08-16T11:47:17.291Z,34.8
2016-08-16T11:52:03.248Z,34.9
2016-08-16T11:57:03.174Z,34.4
2016-08-16T12:02:17.095Z,34.4
2016-08-16T12:07:03.357Z,33.9
2016-08-16T12:12:03.383Z,33.8
2016-08-16T12:17:16.789Z,34.1
2016-08-16T12:22:03.834Z,34.1
2016-08-16T12:27:02.947Z,34.3
2016-08-16T12:32:21.724Z,34.6
2016-08-16T12:37:03.767Z,35.9
2016-08-16T12:42:03.152Z,35.6
2016-08-16T12:47:29.169Z,34.7
2016-08-16T12:52:03.450Z,34.8
2016-08-16T12:57:03.276Z,34.8
2016-08-16T13:02:17.250Z,35.2
2016-08-16T13:07:03.315Z,34.9
2016-08-16T13:12:03.456Z,34.9
2016-08-16T13:17:17.087Z,34.8
2016-08-16T13:22:03.241Z,35.0
2016-08-16T13:27:03.092Z,35.2
2016-08-16T13:32:16.816Z,35.2
2016-08-16T13:37:03.126Z,34.8
2016-08-16T13:42:03.093Z,34.9
2016-08-16T13:47:21.044Z,35.3
2016-08-16T13:52:03.031Z,35.2
2016-08-16T13:57:03.126Z,35.7
2016-08-16T20:02:03.656Z,22.7
2016-08-16T20:07:03.322Z,22.4
2016-08-16T20:17:04.690Z,22.4
2016-08-16T20:22:03.350Z,22.2
2016-08-16T20:27:02.995Z,22.1
2016-08-16T20:32:03.480Z,22.1
2016-08-16T20:37:03.665Z,22.0
2016-08-16T20:42:03.743Z,21.6
2016-08-16T20:47:03.449Z,21.6
2016-08-16T20:52:03.036Z,21.4
2016-08-16T20:57:03.334Z,21.2
2016-08-16T21:02:03.780Z,20.9
2016-08-16T21:07:03.098Z,20.9
2016-08-16T21:12:03.325Z,20.9
2016-08-16T21:17:03.854Z,20.9
2016-08-16T21:22:03.192Z,20.8
2016-08-16T21:27:03.624Z,20.8
2016-08-16T21:32:03.105Z,20.7
2016-08-16T21:37:03.809Z,20.7
2016-08-16T21:42:03.412Z,20.7
2016-08-16T21:47:02.899Z,20.5
2016-08-16T21:52:03.635Z,20.4
2016-08-16T21:57:03.277Z,20.4
2016-08-16T22:02:03.575Z,20.4
2016-08-16T22:07:03.394Z,20.3
2016-08-16T22:12:03.841Z,20.3
2016-08-16T22:22:03.698Z,20.0
2016-08-16T22:27:03.086Z,20.0
2016-08-16T22:32:03.595Z,20.0
2016-08-16T22:37:03.194Z,19.8
2016-08-16T22:42:03.548Z,19.7
2016-08-16T22:47:03.165Z,19.5
2016-08-16T22:52:02.927Z,19.5
2016-08-16T22:57:03.193Z,19.5
2016-08-16T23:02:02.925Z,19.4
2016-08-16T23:07:03.783Z,19.3
2016-08-16T23:12:03.347Z,19.3
2016-08-16T23:17:03.733Z,19.2
2016-08-16T23:22:02.942Z,19.1
2016-08-16T23:27:03.473Z,19.1
2016-08-16T23:32:03.944Z,18.8
2016-08-16T23:37:03.214Z,18.7
2016-08-16T23:42:03.666Z,18.7
2016-08-16T23:47:03.385Z,18.6
2016-08-16T23:52:03.667Z,18.5
2016-08-16T23:57:03.337Z,18.5
